KLM651 EDDH-EGLL
Flight info
| Callsign | KLM651 |
|---|---|
| Flight time | N/A |
| Altitude | 40000 |
| Route | WSN5G/33 WSN N125 ITMIZ DCT ABNED L980 LOGAN |
| Aircraft | B744/H-SDE3FGHIM1M2RWXY/LB1 |
Departure
| Time | 2026-05-05 13:15 |
|---|---|
| Airport | Hamburg Helmut Schmidt Airport (EDDH) |
Arrival
| Time | N/A |
|---|---|
| Airport | London Heathrow Airport (EGLL) |
| Time | Latitude | Longitude | Altitude | Speed | Heading |
|---|---|---|---|---|---|
| 2026-05-05 12:48 | 53.62694 | 9.99213 | 42 ft | 0 kts | 63° |
| 2026-05-05 13:03 | 53.62690 | 9.99200 | 43 ft | 2 kts | 63° |
| 2026-05-05 13:04 | 53.62684 | 9.99181 | 44 ft | 2 kts | 65° |
| 2026-05-05 13:04 | 53.62680 | 9.99159 | 44 ft | 2 kts | 79° |
| 2026-05-05 13:04 | 53.62678 | 9.99137 | 44 ft | 2 kts | 90° |
| 2026-05-05 13:04 | 53.62679 | 9.99115 | 44 ft | 2 kts | 101° |
| 2026-05-05 13:05 | 53.62683 | 9.99095 | 44 ft | 2 kts | 112° |
| 2026-05-05 13:05 | 53.62689 | 9.99075 | 44 ft | 2 kts | 123° |
| 2026-05-05 13:05 | 53.62696 | 9.99058 | 44 ft | 2 kts | 134° |
| 2026-05-05 13:05 | 53.62706 | 9.99043 | 44 ft | 2 kts | 144° |
| 2026-05-05 13:06 | 53.62714 | 9.99034 | 44 ft | 0 kts | 153° |
| 2026-05-05 13:06 | 53.62717 | 9.99032 | 43 ft | 0 kts | 154° |
| 2026-05-05 13:09 | 53.62714 | 9.99035 | 44 ft | 4 kts | 154° |
| 2026-05-05 13:09 | 53.62644 | 9.99094 | 45 ft | 16 kts | 153° |
| 2026-05-05 13:10 | 53.62581 | 9.99172 | 48 ft | 11 kts | 107° |
| 2026-05-05 13:10 | 53.62585 | 9.99301 | 45 ft | 14 kts | 81° |
| 2026-05-05 13:10 | 53.62604 | 9.99462 | 44 ft | 16 kts | 79° |
| 2026-05-05 13:10 | 53.62623 | 9.99620 | 43 ft | 14 kts | 77° |
| 2026-05-05 13:11 | 53.62633 | 9.99703 | 42 ft | 0 kts | 79° |
| 2026-05-05 13:13 | 53.62634 | 9.99713 | 42 ft | 9 kts | 79° |
| 2026-05-05 13:14 | 53.62653 | 9.99842 | 42 ft | 0 kts | 65° |
| 2026-05-05 13:14 | 53.62674 | 9.99893 | 42 ft | 0 kts | 18° |
| 2026-05-05 13:14 | 53.62704 | 9.99883 | 41 ft | 9 kts | 334° |
| 2026-05-05 13:14 | 53.62802 | 9.99802 | 36 ft | 46 kts | 334° |
| 2026-05-05 13:15 | 53.63351 | 9.99344 | 40 ft | 144 kts | 333° |
| 2026-05-05 13:15 | 53.64231 | 9.98574 | 700 ft | 168 kts | 335° |
| 2026-05-05 13:15 | 53.65144 | 9.97767 | 1186 ft | 187 kts | 336° |
| 2026-05-05 13:15 | 53.66228 | 9.96839 | 1662 ft | 209 kts | 335° |
| 2026-05-05 13:16 | 53.67359 | 9.95853 | 2343 ft | 217 kts | 335° |
| 2026-05-05 13:16 | 53.68570 | 9.94834 | 3204 ft | 219 kts | 336° |
| 2026-05-05 13:16 | 53.69768 | 9.93825 | 4022 ft | 222 kts | 335° |
| 2026-05-05 13:16 | 53.70953 | 9.92646 | 4695 ft | 237 kts | 322° |
| 2026-05-05 13:17 | 53.71959 | 9.90720 | 4985 ft | 250 kts | 302° |
| 2026-05-05 13:17 | 53.72535 | 9.88206 | 5151 ft | 272 kts | 282° |
| 2026-05-05 13:17 | 53.72561 | 9.85322 | 5754 ft | 286 kts | 261° |
| 2026-05-05 13:17 | 53.72018 | 9.82560 | 6723 ft | 285 kts | 244° |
| 2026-05-05 13:18 | 53.71030 | 9.80216 | 7587 ft | 287 kts | 230° |
| 2026-05-05 13:18 | 53.69816 | 9.78018 | 8451 ft | 289 kts | 229° |
| 2026-05-05 13:18 | 53.68671 | 9.75809 | 9277 ft | 288 kts | 233° |
| 2026-05-05 13:18 | 53.67750 | 9.73325 | 9687 ft | 285 kts | 247° |
| 2026-05-05 13:19 | 53.67233 | 9.70530 | 9827 ft | 283 kts | 257° |
| 2026-05-05 13:19 | 53.66802 | 9.67653 | 9874 ft | 281 kts | 255° |
| 2026-05-05 13:19 | 53.66342 | 9.64826 | 9879 ft | 278 kts | 255° |
| 2026-05-05 13:19 | 53.65900 | 9.62004 | 10006 ft | 290 kts | 256° |
| 2026-05-05 13:20 | 53.65406 | 9.58929 | 10656 ft | 297 kts | 253° |
| 2026-05-05 13:20 | 53.64640 | 9.56142 | 11329 ft | 302 kts | 238° |
| 2026-05-05 13:20 | 53.63527 | 9.53633 | 12015 ft | 307 kts | 233° |
| 2026-05-05 13:20 | 53.62399 | 9.51082 | 12677 ft | 311 kts | 236° |
| 2026-05-05 13:21 | 53.61294 | 9.48505 | 13343 ft | 314 kts | 235° |
| 2026-05-05 13:21 | 53.60155 | 9.45911 | 13994 ft | 317 kts | 235° |
| 2026-05-05 13:21 | 53.59027 | 9.43310 | 14646 ft | 320 kts | 235° |
| 2026-05-05 13:21 | 53.57878 | 9.40674 | 15280 ft | 322 kts | 235° |
| 2026-05-05 13:22 | 53.56708 | 9.37995 | 15917 ft | 325 kts | 235° |
| 2026-05-05 13:22 | 53.55558 | 9.35356 | 16552 ft | 327 kts | 236° |
| 2026-05-05 13:22 | 53.54391 | 9.32663 | 17171 ft | 328 kts | 235° |
| 2026-05-05 13:22 | 53.53238 | 9.29991 | 17768 ft | 330 kts | 235° |
| 2026-05-05 13:23 | 53.52076 | 9.27302 | 18321 ft | 332 kts | 235° |
| 2026-05-05 13:23 | 53.50895 | 9.24596 | 18878 ft | 335 kts | 235° |
| 2026-05-05 13:23 | 53.49742 | 9.21935 | 19397 ft | 338 kts | 235° |
| 2026-05-05 13:23 | 53.48557 | 9.19211 | 19938 ft | 340 kts | 235° |
| 2026-05-05 13:24 | 53.47338 | 9.16415 | 20501 ft | 350 kts | 235° |
| 2026-05-05 13:24 | 53.46106 | 9.13587 | 21384 ft | 354 kts | 235° |
| 2026-05-05 13:24 | 53.44861 | 9.10724 | 22228 ft | 359 kts | 235° |
| 2026-05-05 13:24 | 53.43602 | 9.07832 | 23166 ft | 361 kts | 235° |
| 2026-05-05 13:25 | 53.42328 | 9.04936 | 24057 ft | 363 kts | 235° |
| 2026-05-05 13:25 | 53.41041 | 9.01989 | 24900 ft | 365 kts | 235° |
| 2026-05-05 13:25 | 53.39729 | 8.98994 | 25618 ft | 365 kts | 235° |
| 2026-05-05 13:25 | 53.38404 | 8.95963 | 26179 ft | 370 kts | 235° |
| 2026-05-05 13:26 | 53.37082 | 8.92931 | 26949 ft | 372 kts | 235° |
| 2026-05-05 13:26 | 53.35736 | 8.89844 | 27666 ft | 376 kts | 235° |
| 2026-05-05 13:26 | 53.34491 | 8.86633 | 28334 ft | 377 kts | 243° |
| 2026-05-05 13:26 | 53.33632 | 8.83113 | 29018 ft | 378 kts | 250° |
| 2026-05-05 13:27 | 53.32877 | 8.79644 | 29635 ft | 381 kts | 249° |
| 2026-05-05 13:27 | 53.32048 | 8.76107 | 30272 ft | 383 kts | 249° |
| 2026-05-05 13:27 | 53.31234 | 8.72502 | 30913 ft | 385 kts | 249° |
| 2026-05-05 13:27 | 53.30398 | 8.68887 | 31532 ft | 386 kts | 249° |
| 2026-05-05 13:28 | 53.29555 | 8.65266 | 32143 ft | 387 kts | 249° |
| 2026-05-05 13:28 | 53.28724 | 8.61631 | 32678 ft | 389 kts | 249° |
| 2026-05-05 13:28 | 53.27871 | 8.57972 | 33187 ft | 392 kts | 249° |
| 2026-05-05 13:28 | 53.27013 | 8.54308 | 33650 ft | 395 kts | 249° |
| 2026-05-05 13:29 | 53.26157 | 8.50632 | 34077 ft | 398 kts | 249° |
| 2026-05-05 13:29 | 53.25276 | 8.46870 | 34478 ft | 401 kts | 248° |
| 2026-05-05 13:29 | 53.24392 | 8.43126 | 34876 ft | 404 kts | 249° |
| 2026-05-05 13:29 | 53.23494 | 8.39281 | 35154 ft | 409 kts | 249° |
| 2026-05-05 13:30 | 53.22592 | 8.35429 | 35320 ft | 416 kts | 249° |
| 2026-05-05 13:30 | 53.21694 | 8.31590 | 35429 ft | 423 kts | 248° |
| 2026-05-05 13:30 | 53.19864 | 8.23810 | 35490 ft | 423 kts | 248° |
| 2026-05-05 13:31 | 53.18074 | 8.16151 | 35437 ft | 416 kts | 248° |
| 2026-05-05 13:31 | 53.16309 | 8.08599 | 35402 ft | 410 kts | 248° |
| 2026-05-05 13:32 | 53.14558 | 8.01103 | 35403 ft | 411 kts | 248° |
| 2026-05-05 13:32 | 53.12791 | 7.93555 | 35404 ft | 415 kts | 248° |
| 2026-05-05 13:33 | 53.11030 | 7.86058 | 35439 ft | 417 kts | 248° |
| 2026-05-05 13:33 | 53.09247 | 7.78467 | 35423 ft | 418 kts | 248° |
| 2026-05-05 13:34 | 53.07462 | 7.70872 | 35410 ft | 417 kts | 248° |
| 2026-05-05 13:34 | 53.05693 | 7.63352 | 35411 ft | 417 kts | 248° |
| 2026-05-05 13:35 | 53.03900 | 7.55709 | 35417 ft | 416 kts | 248° |
| 2026-05-05 13:35 | 53.02119 | 7.48147 | 35410 ft | 415 kts | 248° |
| 2026-05-05 13:36 | 53.00351 | 7.40665 | 35402 ft | 414 kts | 248° |
| 2026-05-05 13:36 | 52.98587 | 7.33186 | 35409 ft | 413 kts | 247° |
| 2026-05-05 13:37 | 52.96841 | 7.25790 | 35406 ft | 414 kts | 247° |
| 2026-05-05 13:37 | 52.95093 | 7.18361 | 35403 ft | 414 kts | 248° |
| 2026-05-05 13:38 | 52.93287 | 7.10819 | 35389 ft | 419 kts | 246° |
| 2026-05-05 13:38 | 52.90881 | 7.03345 | 35554 ft | 431 kts | 242° |
| 2026-05-05 13:39 | 52.89755 | 6.99452 | 35657 ft | 437 kts | 245° |
| 2026-05-05 13:39 | 52.88673 | 6.95427 | 35836 ft | 440 kts | 245° |
| 2026-05-05 13:39 | 52.87565 | 6.91371 | 36019 ft | 442 kts | 245° |
| 2026-05-05 13:39 | 52.86458 | 6.87143 | 36191 ft | 445 kts | 246° |
| 2026-05-05 13:40 | 52.85396 | 6.83032 | 36370 ft | 447 kts | 246° |
| 2026-05-05 13:40 | 52.84311 | 6.78883 | 36541 ft | 448 kts | 246° |
| 2026-05-05 13:40 | 52.83232 | 6.74671 | 36782 ft | 450 kts | 246° |
| 2026-05-05 13:40 | 52.82207 | 6.70677 | 36999 ft | 452 kts | 246° |
| 2026-05-05 13:41 | 52.81184 | 6.66693 | 37209 ft | 454 kts | 246° |
| 2026-05-05 13:41 | 52.80177 | 6.62768 | 37423 ft | 455 kts | 246° |
| 2026-05-05 13:41 | 52.79125 | 6.58671 | 37626 ft | 457 kts | 246° |
| 2026-05-05 13:41 | 52.78121 | 6.54756 | 37816 ft | 458 kts | 246° |
| 2026-05-05 13:42 | 52.77095 | 6.50771 | 38018 ft | 459 kts | 246° |
| 2026-05-05 13:42 | 52.76064 | 6.46767 | 38190 ft | 460 kts | 246° |
| 2026-05-05 13:42 | 52.75060 | 6.42860 | 38378 ft | 461 kts | 246° |
| 2026-05-05 13:42 | 52.74369 | 6.40179 | 38489 ft | 462 kts | 246° |
| 2026-05-05 13:43 | 52.73272 | 6.35959 | 38680 ft | 462 kts | 246° |
| 2026-05-05 13:43 | 52.72250 | 6.32008 | 38870 ft | 463 kts | 246° |
| 2026-05-05 13:43 | 52.70019 | 6.23409 | 39228 ft | 464 kts | 246° |
| 2026-05-05 13:44 | 52.68921 | 6.19184 | 39410 ft | 465 kts | 246° |
| 2026-05-05 13:44 | 52.67974 | 6.15543 | 39543 ft | 465 kts | 246° |
| 2026-05-05 13:44 | 52.66842 | 6.11209 | 39703 ft | 462 kts | 246° |
| 2026-05-05 13:44 | 52.66647 | 6.10464 | 39722 ft | 460 kts | 246° |
| 2026-05-05 13:45 | 52.65862 | 6.07475 | 39748 ft | 457 kts | 245° |
| 2026-05-05 13:45 | 52.64643 | 6.03136 | 39600 ft | 450 kts | 243° |
| 2026-05-05 13:45 | 52.63411 | 5.99115 | 39768 ft | 429 kts | 242° |
| 2026-05-05 13:46 | 52.62167 | 5.95365 | 40075 ft | 403 kts | 240° |
| 2026-05-05 13:46 | 52.60914 | 5.91837 | 39629 ft | 400 kts | 238° |
| 2026-05-05 13:46 | 52.59643 | 5.88515 | 39304 ft | 384 kts | 236° |
| 2026-05-05 13:46 | 52.58364 | 5.85442 | 39420 ft | 361 kts | 234° |
| 2026-05-05 13:47 | 52.57171 | 5.82805 | 39277 ft | 347 kts | 231° |